createdAt,value
2022-10-22T00:02:09.919Z,1.40
2022-10-22T00:04:57.904Z,2.28
2022-10-22T00:07:45.337Z,1.48
2022-10-22T00:10:33.273Z,1.50
2022-10-22T00:13:21.067Z,1.23
2022-10-22T00:16:09.068Z,1.30
2022-10-22T00:18:56.510Z,1.20
2022-10-22T00:21:44.545Z,2.20
2022-10-22T00:24:32.466Z,1.80
2022-10-22T00:27:20.555Z,2.35
2022-10-22T00:30:08.330Z,2.00
2022-10-22T00:32:56.485Z,2.15
2022-10-22T00:35:45.489Z,1.75
2022-10-22T00:38:33.317Z,1.92
2022-10-22T00:41:21.432Z,1.80
2022-10-22T00:44:09.221Z,1.45
2022-10-22T00:46:56.513Z,1.35
2022-10-22T00:49:45.434Z,1.23
2022-10-22T00:52:33.203Z,0.82
2022-10-22T00:55:23.702Z,0.85
2022-10-22T00:58:11.945Z,1.35
2022-10-22T01:01:00.111Z,0.60
2022-10-22T01:03:47.664Z,1.05
2022-10-22T01:06:35.644Z,0.80
2022-10-22T01:09:28.929Z,0.70
2022-10-22T01:12:25.038Z,0.82
2022-10-22T01:15:19.073Z,1.05
2022-10-22T01:18:08.725Z,1.02
2022-10-22T01:21:14.627Z,1.38
2022-10-22T01:24:05.487Z,0.90
2022-10-22T01:27:02.061Z,0.75
2022-10-22T01:29:52.523Z,0.98
2022-10-22T01:32:51.348Z,1.45
2022-10-22T01:35:41.086Z,1.05
2022-10-22T01:38:28.520Z,0.93
2022-10-22T01:41:16.459Z,1.00
2022-10-22T01:44:04.188Z,1.10
2022-10-22T01:46:54.217Z,1.20
2022-10-22T01:49:53.602Z,0.90
2022-10-22T01:53:03.096Z,1.00
2022-10-22T01:55:56.777Z,1.10
2022-10-22T01:58:44.681Z,1.02
2022-10-22T02:01:34.621Z,1.00
2022-10-22T02:04:36.857Z,1.00
2022-10-22T02:07:28.166Z,1.13
2022-10-22T02:10:16.787Z,0.90
2022-10-22T02:13:05.604Z,1.20
2022-10-22T02:15:53.684Z,1.10
2022-10-22T02:18:43.620Z,1.00
2022-10-22T02:21:31.707Z,1.42
2022-10-22T02:24:19.769Z,1.13
2022-10-22T02:27:10.315Z,1.27
2022-10-22T02:30:07.325Z,1.20
2022-10-22T02:32:55.136Z,1.00
2022-10-22T02:35:43.462Z,1.20
2022-10-22T02:38:31.518Z,1.10
2022-10-22T02:41:20.053Z,1.00
2022-10-22T02:44:11.628Z,0.82
2022-10-22T02:46:59.947Z,1.13
2022-10-22T02:49:47.722Z,0.88
2022-10-22T02:52:35.662Z,1.02
2022-10-22T02:55:23.589Z,0.90
2022-10-22T02:58:11.545Z,0.95
2022-10-22T03:00:59.514Z,1.25
2022-10-22T03:03:47.404Z,1.52
2022-10-22T03:06:34.953Z,0.65
2022-10-22T03:09:24.797Z,1.20
2022-10-22T03:12:12.780Z,1.48
2022-10-22T03:15:00.233Z,0.93
2022-10-22T03:17:48.126Z,1.08
2022-10-22T03:20:35.662Z,1.00
2022-10-22T03:23:23.538Z,1.20
2022-10-22T03:26:12.551Z,0.90
2022-10-22T03:29:01.342Z,1.02
2022-10-22T03:31:49.351Z,1.15
2022-10-22T03:34:37.282Z,0.70
2022-10-22T03:37:26.069Z,0.90
2022-10-22T03:40:14.641Z,0.85
2022-10-22T03:43:02.111Z,0.87
2022-10-22T03:45:49.624Z,0.88
2022-10-22T03:48:37.076Z,0.70
2022-10-22T03:51:27.298Z,0.90
2022-10-22T03:54:15.505Z,0.90
2022-10-22T03:57:03.798Z,1.10
2022-10-22T03:59:51.377Z,0.90
2022-10-22T04:02:38.942Z,0.68
2022-10-22T04:05:25.998Z,1.02
2022-10-22T04:08:13.550Z,0.70
2022-10-22T04:11:00.378Z,0.90
2022-10-22T04:13:48.297Z,0.70
2022-10-22T04:16:35.134Z,0.95
2022-10-22T04:19:22.489Z,0.68
2022-10-22T04:22:09.934Z,0.70
2022-10-22T04:24:57.890Z,0.80
2022-10-22T04:27:45.296Z,0.73
2022-10-22T04:30:32.974Z,0.70
2022-10-22T04:33:20.720Z,0.67
2022-10-22T04:36:13.654Z,1.00
2022-10-22T04:39:01.773Z,0.73
2022-10-22T04:41:49.235Z,0.90
2022-10-22T04:44:36.705Z,0.70
2022-10-22T04:47:23.877Z,0.70
2022-10-22T04:50:11.418Z,0.90
2022-10-22T04:52:58.428Z,0.60
2022-10-22T04:55:45.750Z,0.70
2022-10-22T04:58:33.207Z,0.50
2022-10-22T05:01:22.946Z,0.60
2022-10-22T05:04:13.567Z,0.63
2022-10-22T05:07:00.586Z,0.70
2022-10-22T05:09:48.118Z,0.60
2022-10-22T05:12:35.570Z,0.40
2022-10-22T05:15:22.583Z,0.60
2022-10-22T05:18:09.813Z,0.60
2022-10-22T05:20:57.700Z,0.60
2022-10-22T05:23:46.330Z,0.60
2022-10-22T05:26:33.813Z,0.40
2022-10-22T05:29:22.328Z,0.70
2022-10-22T05:32:10.218Z,0.53
2022-10-22T05:34:58.164Z,0.50
2022-10-22T05:37:46.060Z,0.73
2022-10-22T05:40:33.983Z,0.60
2022-10-22T05:43:21.638Z,0.50
2022-10-22T05:46:10.762Z,0.50
2022-10-22T05:48:59.820Z,0.50
2022-10-22T05:51:47.133Z,0.50
2022-10-22T05:54:35.037Z,0.40
2022-10-22T05:57:22.479Z,0.40
2022-10-22T06:00:12.896Z,0.60
2022-10-22T06:03:03.165Z,0.52
2022-10-22T06:05:51.024Z,0.50
2022-10-22T06:08:38.807Z,0.40
2022-10-22T06:11:27.275Z,0.67
2022-10-22T06:14:16.604Z,0.50
2022-10-22T06:17:04.477Z,0.40
2022-10-22T06:19:52.420Z,0.60
2022-10-22T06:22:40.540Z,0.40
2022-10-22T06:25:28.233Z,0.53
2022-10-22T06:28:16.136Z,0.40
2022-10-22T06:31:04.739Z,0.33
2022-10-22T06:33:52.452Z,0.40
2022-10-22T06:36:43.030Z,0.50
2022-10-22T06:39:31.006Z,0.40
2022-10-22T06:42:18.454Z,0.40
2022-10-22T06:45:06.233Z,0.40
2022-10-22T06:47:54.269Z,0.50
2022-10-22T06:50:42.393Z,0.38
2022-10-22T06:53:30.359Z,0.50
2022-10-22T06:56:19.133Z,0.20
2022-10-22T06:59:06.964Z,0.30
2022-10-22T07:01:54.821Z,0.50
2022-10-22T07:04:42.999Z,0.52
2022-10-22T07:07:30.399Z,0.40
2022-10-22T07:10:18.201Z,0.50
2022-10-22T07:13:05.660Z,0.47
2022-10-22T07:15:55.140Z,0.50
2022-10-22T07:18:43.026Z,0.80
2022-10-22T07:21:30.936Z,0.60
2022-10-22T07:24:18.436Z,0.50
2022-10-22T07:27:09.408Z,0.40
2022-10-22T07:30:01.014Z,0.55
2022-10-22T07:32:48.437Z,0.35
2022-10-22T07:35:37.044Z,0.57
2022-10-22T07:38:24.886Z,0.50
2022-10-22T07:41:13.189Z,0.60
2022-10-22T07:44:00.747Z,0.65
2022-10-22T07:46:49.100Z,0.60
2022-10-22T07:49:37.055Z,0.77
2022-10-22T07:52:24.537Z,0.60
2022-10-22T07:55:13.420Z,0.63
2022-10-22T07:58:00.932Z,0.80
2022-10-22T08:00:49.988Z,1.52
2022-10-22T08:03:37.801Z,1.20
2022-10-22T08:06:25.396Z,0.80
2022-10-22T08:09:13.125Z,0.77
2022-10-22T08:12:00.716Z,0.40
2022-10-22T08:14:48.132Z,1.10
2022-10-22T08:17:35.573Z,1.00
2022-10-22T08:20:23.143Z,1.23
2022-10-22T08:23:10.560Z,1.25
2022-10-22T08:25:58.456Z,1.00
2022-10-22T08:28:45.955Z,0.90
2022-10-22T08:31:33.538Z,0.90
2022-10-22T08:34:21.288Z,1.00
2022-10-22T08:37:08.624Z,0.77
2022-10-22T08:39:56.485Z,0.60
2022-10-22T08:42:53.003Z,0.60
2022-10-22T08:45:44.247Z,0.98
2022-10-22T08:48:37.895Z,0.65
2022-10-22T08:51:26.574Z,0.68
2022-10-22T08:54:14.474Z,0.50
2022-10-22T08:57:07.839Z,0.85
2022-10-22T09:00:03.554Z,0.70
2022-10-22T09:02:59.249Z,0.70
2022-10-22T09:05:56.923Z,0.60
2022-10-22T09:08:45.974Z,0.65
2022-10-22T09:11:35.576Z,0.60
2022-10-22T09:14:24.730Z,0.70
2022-10-22T09:17:11.952Z,0.60
2022-10-22T09:20:17.640Z,0.70
2022-10-22T09:23:13.510Z,0.70
2022-10-22T09:26:01.933Z,0.80
2022-10-22T09:28:52.463Z,0.57
2022-10-22T09:31:40.372Z,0.60
2022-10-22T09:34:29.204Z,0.70
2022-10-22T09:37:17.968Z,0.70
2022-10-22T09:40:06.183Z,0.52
2022-10-22T09:42:54.040Z,0.60
2022-10-22T09:45:41.715Z,0.60
2022-10-22T09:48:32.474Z,0.65
2022-10-22T09:51:20.178Z,0.70
2022-10-22T09:54:25.206Z,0.77
2022-10-22T09:57:17.552Z,0.60
2022-10-22T10:00:08.599Z,0.82
2022-10-22T10:02:57.908Z,0.70
2022-10-22T10:05:47.278Z,1.00
2022-10-22T10:08:35.351Z,0.80
2022-10-22T10:11:33.263Z,0.90
2022-10-22T10:14:33.522Z,0.70
2022-10-22T10:17:28.098Z,1.00
2022-10-22T10:20:34.509Z,0.93
2022-10-22T10:23:24.498Z,1.00
2022-10-22T10:26:28.070Z,0.93
2022-10-22T10:32:49.036Z,0.88
2022-10-22T10:35:55.217Z,1.15
2022-10-22T10:38:43.085Z,0.90
2022-10-22T10:41:30.917Z,0.82
2022-10-22T10:44:30.553Z,0.70
2022-10-22T10:47:27.946Z,1.08
2022-10-22T10:50:22.239Z,0.90
2022-10-22T10:53:22.395Z,0.50
2022-10-22T10:56:09.599Z,0.63
2022-10-22T10:58:59.991Z,0.70
2022-10-22T11:01:52.105Z,0.68
2022-10-22T11:04:59.390Z,0.80
2022-10-22T11:07:54.955Z,0.82
2022-10-22T11:10:47.710Z,0.80
2022-10-22T11:13:41.570Z,0.82
2022-10-22T11:16:32.300Z,0.70
2022-10-22T11:19:51.222Z,0.70
2022-10-22T11:23:00.269Z,1.00
2022-10-22T11:25:51.340Z,1.23
2022-10-22T11:28:42.399Z,1.00
2022-10-22T11:31:31.459Z,0.90
2022-10-22T11:34:35.546Z,0.43
2022-10-22T11:37:26.815Z,0.65
2022-10-22T11:40:21.250Z,0.60
2022-10-22T11:43:09.482Z,0.65
2022-10-22T11:46:26.399Z,0.60
2022-10-22T11:49:13.609Z,0.50
2022-10-22T11:52:23.486Z,0.60
2022-10-22T11:55:34.413Z,0.40
2022-10-22T11:58:30.969Z,0.75
2022-10-22T12:01:22.178Z,0.80
2022-10-22T12:04:17.349Z,0.70
2022-10-22T12:07:04.967Z,0.85
2022-10-22T12:12:45.553Z,0.70
2022-10-22T12:15:32.785Z,0.60
2022-10-22T12:18:24.329Z,0.60
2022-10-22T12:21:15.072Z,0.80
2022-10-22T12:24:03.452Z,0.68
2022-10-22T12:26:52.752Z,1.95
2022-10-22T12:29:40.818Z,1.48
2022-10-22T12:32:35.810Z,0.95
2022-10-22T12:35:24.919Z,0.60
2022-10-22T12:38:22.927Z,0.60
2022-10-22T12:41:10.796Z,0.40
2022-10-22T12:44:05.178Z,0.70
2022-10-22T12:46:56.016Z,0.70
2022-10-22T12:49:48.783Z,0.50
2022-10-22T12:52:36.224Z,0.77
2022-10-22T12:55:25.872Z,0.65
2022-10-22T12:58:17.862Z,0.68
2022-10-22T13:01:05.454Z,0.70
2022-10-22T13:04:05.366Z,0.68
2022-10-22T13:07:04.232Z,0.75
2022-10-22T13:09:58.807Z,0.60
2022-10-22T13:12:50.482Z,0.52
2022-10-22T13:15:39.579Z,0.70
2022-10-22T13:18:33.570Z,0.75
2022-10-22T13:21:26.524Z,0.50
2022-10-22T13:24:21.608Z,0.52
2022-10-22T13:27:10.272Z,0.60
2022-10-22T13:29:57.929Z,0.80
2022-10-22T13:32:49.878Z,0.65
2022-10-22T13:35:39.337Z,0.68
2022-10-22T13:38:28.273Z,0.70
2022-10-22T13:41:20.472Z,0.80
2022-10-22T13:44:07.852Z,0.75
2022-10-22T13:46:56.657Z,0.80
2022-10-22T13:49:44.807Z,0.65
2022-10-22T13:52:36.962Z,0.80
2022-10-22T13:55:27.439Z,0.70
2022-10-22T14:01:15.522Z,0.98
2022-10-22T14:04:04.651Z,0.98
2022-10-22T14:06:52.538Z,1.10
2022-10-22T14:09:39.991Z,1.25
2022-10-22T14:12:28.880Z,1.20
2022-10-22T14:15:17.792Z,0.80
2022-10-22T14:18:07.203Z,0.85
2022-10-22T14:20:55.671Z,0.85
2022-10-22T14:23:44.010Z,0.70
2022-10-22T14:26:33.658Z,1.00
2022-10-22T14:29:21.522Z,0.93
2022-10-22T14:32:14.055Z,1.00
2022-10-22T14:35:01.760Z,0.90
2022-10-22T14:37:49.213Z,0.90
2022-10-22T14:40:39.379Z,1.02
2022-10-22T14:43:28.441Z,0.65
2022-10-22T14:46:17.041Z,0.60
2022-10-22T14:49:04.528Z,0.93
2022-10-22T14:51:52.394Z,0.82
2022-10-22T14:54:39.855Z,0.60
2022-10-22T14:57:27.549Z,0.98
2022-10-22T15:00:19.555Z,0.70
2022-10-22T15:03:06.983Z,0.90
2022-10-22T15:05:56.185Z,0.95
2022-10-22T15:08:44.136Z,0.77
2022-10-22T15:11:31.549Z,1.00
2022-10-22T15:14:19.479Z,1.50
2022-10-22T15:17:06.864Z,0.70
2022-10-22T15:19:56.636Z,1.20
2022-10-22T15:22:45.710Z,0.98
2022-10-22T15:25:33.222Z,1.00
2022-10-22T15:28:21.162Z,0.90
2022-10-22T15:31:08.819Z,0.93
2022-10-22T15:34:01.339Z,0.80
2022-10-22T15:36:49.064Z,0.70
2022-10-22T15:39:37.266Z,0.90
2022-10-22T15:42:25.188Z,0.88
2022-10-22T15:45:13.101Z,0.60
2022-10-22T15:48:00.368Z,0.90
2022-10-22T15:50:48.241Z,1.17
2022-10-22T15:53:35.673Z,1.13
2022-10-22T15:56:24.419Z,1.17
2022-10-22T15:59:12.725Z,1.30
2022-10-22T16:02:00.439Z,1.55
2022-10-22T16:04:47.911Z,1.25
2022-10-22T16:07:35.615Z,1.25
2022-10-22T16:10:23.643Z,2.20
2022-10-22T16:13:11.269Z,1.70
2022-10-22T16:15:59.157Z,1.75
2022-10-22T16:18:46.808Z,1.63
2022-10-22T16:21:34.684Z,1.45
2022-10-22T16:24:22.281Z,1.40
2022-10-22T16:27:09.957Z,1.20
2022-10-22T16:29:57.758Z,1.50
2022-10-22T16:32:45.397Z,1.70
2022-10-22T16:35:33.348Z,1.70
2022-10-22T16:38:20.803Z,1.70
2022-10-22T16:41:12.521Z,1.70
2022-10-22T16:44:02.950Z,1.80
2022-10-22T16:46:50.377Z,1.80
2022-10-22T16:49:38.023Z,1.58
2022-10-22T16:52:25.856Z,2.50
2022-10-22T16:55:13.088Z,1.95
2022-10-22T16:58:00.914Z,2.20
2022-10-22T17:00:48.209Z,2.70
2022-10-22T17:03:37.075Z,3.08
2022-10-22T17:06:25.322Z,3.03
2022-10-22T17:09:13.242Z,3.38
2022-10-22T17:12:00.619Z,3.30
2022-10-22T17:14:48.324Z,4.30
2022-10-22T17:17:36.299Z,5.65
2022-10-22T17:20:24.605Z,4.95
2022-10-22T17:23:11.991Z,4.22
2022-10-22T17:26:03.660Z,5.97
2022-10-22T17:28:51.570Z,5.28
2022-10-22T17:31:40.076Z,4.55
2022-10-22T17:34:30.190Z,4.80
2022-10-22T17:37:18.069Z,6.72
2022-10-22T17:40:05.787Z,4.72
2022-10-22T17:42:54.278Z,6.07
2022-10-22T17:45:41.728Z,6.65
2022-10-22T17:48:29.549Z,5.28
2022-10-22T17:51:17.611Z,4.38
2022-10-22T17:54:07.497Z,4.40
2022-10-22T17:56:57.083Z,3.22
2022-10-22T17:59:44.966Z,3.70
2022-10-22T18:02:32.547Z,3.60
2022-10-22T18:05:22.019Z,2.83
2022-10-22T18:08:09.666Z,3.22
2022-10-22T18:10:57.541Z,3.25
2022-10-22T18:13:47.941Z,2.63
2022-10-22T18:16:35.869Z,3.53
2022-10-22T18:19:24.927Z,3.00
2022-10-22T18:22:12.189Z,2.70
2022-10-22T18:25:00.026Z,2.25
2022-10-22T18:27:47.970Z,2.50
2022-10-22T18:30:35.652Z,2.55
2022-10-22T18:33:24.651Z,2.55
2022-10-22T18:36:14.240Z,2.47
2022-10-22T18:39:02.269Z,2.78
2022-10-22T18:41:49.980Z,2.42
2022-10-22T18:44:37.505Z,2.40
2022-10-22T18:47:25.333Z,2.47
2022-10-22T18:50:13.229Z,2.45
2022-10-22T18:53:01.096Z,2.95
2022-10-22T18:55:48.294Z,2.90
2022-10-22T18:58:43.267Z,2.67
2022-10-22T19:01:30.827Z,2.72
2022-10-22T19:04:18.676Z,2.70
2022-10-22T19:07:06.286Z,2.70
2022-10-22T19:09:54.125Z,3.20
2022-10-22T19:12:41.785Z,3.15
2022-10-22T19:18:22.307Z,3.15
2022-10-22T19:21:09.529Z,3.08
2022-10-22T19:23:58.022Z,3.20
2022-10-22T19:26:45.920Z,3.15
2022-10-22T19:29:33.347Z,7.18
2022-10-22T19:32:21.014Z,4.93
2022-10-22T19:35:08.740Z,4.17
2022-10-22T19:37:56.142Z,5.13
2022-10-22T19:40:44.080Z,3.30
2022-10-22T19:43:31.461Z,2.78
2022-10-22T19:46:19.487Z,3.40
2022-10-22T19:49:07.015Z,3.07
2022-10-22T19:51:54.442Z,3.57
2022-10-22T19:54:44.561Z,3.53
2022-10-22T19:57:31.927Z,4.03
2022-10-22T20:00:19.169Z,4.63
2022-10-22T20:03:06.641Z,4.13
2022-10-22T20:05:54.311Z,3.30
2022-10-22T20:08:42.005Z,3.03
2022-10-22T20:11:30.158Z,3.87
2022-10-22T20:14:18.020Z,3.43
2022-10-22T20:17:05.263Z,2.87
2022-10-22T20:19:52.921Z,3.17
2022-10-22T20:22:43.554Z,3.47
2022-10-22T20:25:31.043Z,3.13
2022-10-22T20:28:18.263Z,3.27
2022-10-22T20:31:12.928Z,2.97
2022-10-22T20:34:04.353Z,2.80
2022-10-22T20:36:51.747Z,2.30
2022-10-22T20:39:39.659Z,2.47
2022-10-22T20:42:27.066Z,2.20
2022-10-22T20:45:14.905Z,2.77
2022-10-22T20:48:03.085Z,2.60
2022-10-22T20:50:51.285Z,2.43
2022-10-22T20:53:39.137Z,2.63
2022-10-22T20:56:27.145Z,2.70
2022-10-22T20:59:14.562Z,2.90
2022-10-22T21:02:02.066Z,3.40
2022-10-22T21:04:49.343Z,3.00
2022-10-22T21:07:36.112Z,2.90
2022-10-22T21:10:22.891Z,3.27
2022-10-22T21:13:10.613Z,3.33
2022-10-22T21:15:57.379Z,2.60
2022-10-22T21:18:45.261Z,3.00
2022-10-22T21:21:32.037Z,2.80
2022-10-22T21:24:19.927Z,2.27
2022-10-22T21:27:07.449Z,2.53
2022-10-22T21:29:54.438Z,2.30
2022-10-22T21:32:41.732Z,2.10
2022-10-22T21:35:28.758Z,2.13
2022-10-22T21:38:15.970Z,2.03
2022-10-22T21:41:11.539Z,2.43
2022-10-22T21:43:58.885Z,2.10
2022-10-22T21:46:46.230Z,2.60
2022-10-22T21:49:33.717Z,2.10
2022-10-22T21:52:20.867Z,2.10
2022-10-22T21:55:08.801Z,2.33
2022-10-22T21:57:55.832Z,2.63
2022-10-22T22:00:43.274Z,2.40
2022-10-22T22:03:30.457Z,2.63
2022-10-22T22:06:21.423Z,2.80
2022-10-22T22:09:08.878Z,2.67
2022-10-22T22:11:56.849Z,2.80
2022-10-22T22:14:44.115Z,2.20
2022-10-22T22:17:31.408Z,2.95
2022-10-22T22:20:18.665Z,2.80
2022-10-22T22:23:05.434Z,3.03
2022-10-22T22:25:53.137Z,2.97
2022-10-22T22:28:41.022Z,2.77
2022-10-22T22:31:33.076Z,2.87
2022-10-22T22:34:20.056Z,2.67
2022-10-22T22:37:07.832Z,2.57
2022-10-22T22:39:55.033Z,2.53
2022-10-22T22:42:42.459Z,3.60
2022-10-22T22:45:29.240Z,2.97
2022-10-22T22:48:17.076Z,2.90
2022-10-22T22:51:05.562Z,2.73
2022-10-22T22:53:53.421Z,2.50
2022-10-22T22:56:40.933Z,2.97
2022-10-22T22:59:28.797Z,2.97
2022-10-22T23:02:16.186Z,2.70
2022-10-22T23:05:03.890Z,2.37
2022-10-22T23:07:51.796Z,2.40
2022-10-22T23:10:39.166Z,2.30
2022-10-22T23:13:27.023Z,2.40
2022-10-22T23:16:14.265Z,3.03
2022-10-22T23:19:02.096Z,2.07
2022-10-22T23:21:53.989Z,2.70
2022-10-22T23:24:41.643Z,2.30
2022-10-22T23:27:29.285Z,2.20
2022-10-22T23:30:17.191Z,2.40
2022-10-22T23:33:05.048Z,2.13
2022-10-22T23:35:52.433Z,2.10
2022-10-22T23:38:41.355Z,2.27
2022-10-22T23:41:28.765Z,1.70
2022-10-22T23:44:16.809Z,2.10
2022-10-22T23:47:04.489Z,1.73
2022-10-22T23:49:51.865Z,2.20
2022-10-22T23:52:40.108Z,2.00
2022-10-22T23:55:27.662Z,2.00
2022-10-22T23:58:15.602Z,2.23
